sensor_id;sensor_type;location;lat;lon;timestamp;temperature;humidity
10042;DHT22;5061;49.068;12.058;2022-12-29T00:03:05;1.70;99.90
10042;DHT22;5061;49.068;12.058;2022-12-29T00:06:26;1.70;99.90
10042;DHT22;5061;49.068;12.058;2022-12-29T00:09:48;1.70;99.90
10042;DHT22;5061;49.068;12.058;2022-12-29T00:13:09;1.70;99.90
10042;DHT22;5061;49.068;12.058;2022-12-29T00:16:48;1.70;99.90
10042;DHT22;5061;49.068;12.058;2022-12-29T00:20:08;1.70;99.90
10042;DHT22;5061;49.068;12.058;2022-12-29T00:23:48;1.70;99.90
10042;DHT22;5061;49.068;12.058;2022-12-29T00:27:31;1.70;99.90
10042;DHT22;5061;49.068;12.058;2022-12-29T00:31:12;1.80;99.90
10042;DHT22;5061;49.068;12.058;2022-12-29T00:34:51;1.80;99.90
10042;DHT22;5061;49.068;12.058;2022-12-29T00:38:32;1.80;99.90
10042;DHT22;5061;49.068;12.058;2022-12-29T00:42:13;1.80;99.90
10042;DHT22;5061;49.068;12.058;2022-12-29T00:45:52;1.80;99.90
10042;DHT22;5061;49.068;12.058;2022-12-29T00:49:13;1.80;99.90
10042;DHT22;5061;49.068;12.058;2022-12-29T00:52:53;1.80;99.90
10042;DHT22;5061;49.068;12.058;2022-12-29T00:56:13;1.80;99.90
10042;DHT22;5061;49.068;12.058;2022-12-29T00:59:38;1.80;99.90
10042;DHT22;5061;49.068;12.058;2022-12-29T01:02:59;1.80;99.90
10042;DHT22;5061;49.068;12.058;2022-12-29T01:06:19;1.80;99.90
10042;DHT22;5061;49.068;12.058;2022-12-29T01:09:40;1.80;99.90
10042;DHT22;5061;49.068;12.058;2022-12-29T01:13:19;1.80;99.90
10042;DHT22;5061;49.068;12.058;2022-12-29T01:16:40;1.80;99.90
10042;DHT22;5061;49.068;12.058;2022-12-29T01:20:01;1.80;99.90
10042;DHT22;5061;49.068;12.058;2022-12-29T01:23:22;1.80;99.90
10042;DHT22;5061;49.068;12.058;2022-12-29T01:26:43;1.80;99.90
10042;DHT22;5061;49.068;12.058;2022-12-29T01:30:04;1.80;99.90
10042;DHT22;5061;49.068;12.058;2022-12-29T01:33:25;1.80;99.90
10042;DHT22;5061;49.068;12.058;2022-12-29T01:36:45;1.80;99.90
10042;DHT22;5061;49.068;12.058;2022-12-29T01:40:06;1.80;99.90
10042;DHT22;5061;49.068;12.058;2022-12-29T01:43:47;1.70;99.90
10042;DHT22;5061;49.068;12.058;2022-12-29T01:47:08;1.80;99.90
10042;DHT22;5061;49.068;12.058;2022-12-29T01:50:32;1.80;99.90
10042;DHT22;5061;49.068;12.058;2022-12-29T01:53:55;1.70;99.90
10042;DHT22;5061;49.068;12.058;2022-12-29T01:57:22;1.70;99.90
10042;DHT22;5061;49.068;12.058;2022-12-29T02:00:45;1.70;99.90
10042;DHT22;5061;49.068;12.058;2022-12-29T02:04:06;1.70;99.90
10042;DHT22;5061;49.068;12.058;2022-12-29T02:07:28;1.70;99.90
10042;DHT22;5061;49.068;12.058;2022-12-29T02:10:49;1.70;99.90
10042;DHT22;5061;49.068;12.058;2022-12-29T02:14:11;1.70;99.90
10042;DHT22;5061;49.068;12.058;2022-12-29T02:28:48;1.70;99.90
10042;DHT22;5061;49.068;12.058;2022-12-29T02:36:01;1.70;99.90
10042;DHT22;5061;49.068;12.058;2022-12-29T02:47:00;1.70;99.90
10042;DHT22;5061;49.068;12.058;2022-12-29T02:50:49;1.70;99.90
10042;DHT22;5061;49.068;12.058;2022-12-29T02:54:11;1.70;99.90
10042;DHT22;5061;49.068;12.058;2022-12-29T03:05:56;1.70;99.90
10042;DHT22;5061;49.068;12.058;2022-12-29T03:09:30;1.70;99.90
10042;DHT22;5061;49.068;12.058;2022-12-29T03:17:23;1.80;99.90
10042;DHT22;5061;49.068;12.058;2022-12-29T03:20:53;1.80;99.90
10042;DHT22;5061;49.068;12.058;2022-12-29T03:24:18;1.80;99.90
10042;DHT22;5061;49.068;12.058;2022-12-29T03:27:44;1.80;99.90
10042;DHT22;5061;49.068;12.058;2022-12-29T03:31:06;1.80;99.90
10042;DHT22;5061;49.068;12.058;2022-12-29T03:34:29;1.80;99.90
10042;DHT22;5061;49.068;12.058;2022-12-29T03:41:20;1.80;99.90
10042;DHT22;5061;49.068;12.058;2022-12-29T03:44:43;1.90;99.90
10042;DHT22;5061;49.068;12.058;2022-12-29T03:48:04;1.90;99.90
10042;DHT22;5061;49.068;12.058;2022-12-29T03:51:25;1.90;99.90
10042;DHT22;5061;49.068;12.058;2022-12-29T03:54:46;1.90;99.90
10042;DHT22;5061;49.068;12.058;2022-12-29T03:58:07;1.90;99.90
10042;DHT22;5061;49.068;12.058;2022-12-29T04:01:27;1.90;99.90
10042;DHT22;5061;49.068;12.058;2022-12-29T04:04:48;1.90;99.90
10042;DHT22;5061;49.068;12.058;2022-12-29T04:08:08;1.90;99.90
10042;DHT22;5061;49.068;12.058;2022-12-29T04:11:29;1.90;99.90
10042;DHT22;5061;49.068;12.058;2022-12-29T04:14:50;1.90;99.90
10042;DHT22;5061;49.068;12.058;2022-12-29T04:18:11;1.90;99.90
10042;DHT22;5061;49.068;12.058;2022-12-29T04:21:32;1.90;99.90
10042;DHT22;5061;49.068;12.058;2022-12-29T04:24:52;1.90;99.90
10042;DHT22;5061;49.068;12.058;2022-12-29T04:28:13;1.90;99.90
10042;DHT22;5061;49.068;12.058;2022-12-29T04:31:34;1.90;99.90
10042;DHT22;5061;49.068;12.058;2022-12-29T04:34:55;1.90;99.90
10042;DHT22;5061;49.068;12.058;2022-12-29T04:38:16;1.90;99.90
10042;DHT22;5061;49.068;12.058;2022-12-29T04:41:36;1.90;99.90
10042;DHT22;5061;49.068;12.058;2022-12-29T04:44:57;1.90;99.90
10042;DHT22;5061;49.068;12.058;2022-12-29T04:48:17;1.90;99.90
10042;DHT22;5061;49.068;12.058;2022-12-29T04:51:38;2.00;99.90
10042;DHT22;5061;49.068;12.058;2022-12-29T04:54:59;2.00;99.90
10042;DHT22;5061;49.068;12.058;2022-12-29T04:58:20;2.00;99.90
10042;DHT22;5061;49.068;12.058;2022-12-29T05:01:40;2.00;99.90
10042;DHT22;5061;49.068;12.058;2022-12-29T05:05:03;2.00;99.90
10042;DHT22;5061;49.068;12.058;2022-12-29T05:08:24;2.00;99.90
10042;DHT22;5061;49.068;12.058;2022-12-29T05:11:44;2.00;99.90
10042;DHT22;5061;49.068;12.058;2022-12-29T05:15:07;2.00;99.90
10042;DHT22;5061;49.068;12.058;2022-12-29T05:18:28;2.00;99.90
10042;DHT22;5061;49.068;12.058;2022-12-29T05:21:48;2.00;99.90
10042;DHT22;5061;49.068;12.058;2022-12-29T05:25:09;2.00;99.90
10042;DHT22;5061;49.068;12.058;2022-12-29T05:28:30;2.00;99.90
10042;DHT22;5061;49.068;12.058;2022-12-29T05:31:50;2.10;99.90
10042;DHT22;5061;49.068;12.058;2022-12-29T05:35:11;2.00;99.90
10042;DHT22;5061;49.068;12.058;2022-12-29T05:38:31;2.10;99.90
10042;DHT22;5061;49.068;12.058;2022-12-29T05:41:52;2.10;99.90
10042;DHT22;5061;49.068;12.058;2022-12-29T05:45:13;2.10;99.90
10042;DHT22;5061;49.068;12.058;2022-12-29T05:48:33;2.00;99.90
10042;DHT22;5061;49.068;12.058;2022-12-29T05:51:54;2.10;99.90
10042;DHT22;5061;49.068;12.058;2022-12-29T05:55:14;2.10;99.90
10042;DHT22;5061;49.068;12.058;2022-12-29T05:58:35;2.10;99.90
10042;DHT22;5061;49.068;12.058;2022-12-29T06:01:55;2.10;99.90
10042;DHT22;5061;49.068;12.058;2022-12-29T06:05:16;2.00;99.90
10042;DHT22;5061;49.068;12.058;2022-12-29T06:08:37;2.00;99.90
10042;DHT22;5061;49.068;12.058;2022-12-29T06:11:57;2.00;99.90
10042;DHT22;5061;49.068;12.058;2022-12-29T06:15:18;2.00;99.90
10042;DHT22;5061;49.068;12.058;2022-12-29T06:18:38;2.00;99.90
10042;DHT22;5061;49.068;12.058;2022-12-29T06:21:59;2.00;99.90
10042;DHT22;5061;49.068;12.058;2022-12-29T06:25:19;2.00;99.90
10042;DHT22;5061;49.068;12.058;2022-12-29T06:28:40;2.10;99.90
10042;DHT22;5061;49.068;12.058;2022-12-29T06:32:01;2.10;99.90
10042;DHT22;5061;49.068;12.058;2022-12-29T06:35:21;2.10;99.90
10042;DHT22;5061;49.068;12.058;2022-12-29T06:38:45;2.10;99.90
10042;DHT22;5061;49.068;12.058;2022-12-29T06:42:05;2.10;99.90
10042;DHT22;5061;49.068;12.058;2022-12-29T06:45:26;2.10;99.90
10042;DHT22;5061;49.068;12.058;2022-12-29T06:48:46;2.10;99.90
10042;DHT22;5061;49.068;12.058;2022-12-29T06:52:07;2.10;99.90
10042;DHT22;5061;49.068;12.058;2022-12-29T06:55:27;2.10;99.90
10042;DHT22;5061;49.068;12.058;2022-12-29T06:58:48;2.10;99.90
10042;DHT22;5061;49.068;12.058;2022-12-29T07:02:12;2.10;99.90
10042;DHT22;5061;49.068;12.058;2022-12-29T07:05:34;2.10;99.90
10042;DHT22;5061;49.068;12.058;2022-12-29T07:08:55;2.10;99.90
10042;DHT22;5061;49.068;12.058;2022-12-29T07:12:17;2.10;99.90
10042;DHT22;5061;49.068;12.058;2022-12-29T07:15:38;2.10;99.90
10042;DHT22;5061;49.068;12.058;2022-12-29T07:18:58;2.00;99.90
10042;DHT22;5061;49.068;12.058;2022-12-29T07:22:19;2.00;99.90
10042;DHT22;5061;49.068;12.058;2022-12-29T07:25:40;2.00;99.90
10042;DHT22;5061;49.068;12.058;2022-12-29T07:29:05;2.00;99.90
10042;DHT22;5061;49.068;12.058;2022-12-29T07:32:25;2.00;99.90
10042;DHT22;5061;49.068;12.058;2022-12-29T07:35:46;2.00;99.90
10042;DHT22;5061;49.068;12.058;2022-12-29T07:39:07;1.90;99.90
10042;DHT22;5061;49.068;12.058;2022-12-29T07:42:27;1.90;99.90
10042;DHT22;5061;49.068;12.058;2022-12-29T07:45:48;1.90;99.90
10042;DHT22;5061;49.068;12.058;2022-12-29T07:49:08;1.90;99.90
10042;DHT22;5061;49.068;12.058;2022-12-29T07:52:29;1.90;99.90
10042;DHT22;5061;49.068;12.058;2022-12-29T07:55:50;1.90;99.90
10042;DHT22;5061;49.068;12.058;2022-12-29T07:59:10;1.90;99.90
10042;DHT22;5061;49.068;12.058;2022-12-29T08:02:32;1.90;99.90
10042;DHT22;5061;49.068;12.058;2022-12-29T08:05:53;1.90;99.90
10042;DHT22;5061;49.068;12.058;2022-12-29T08:09:13;1.90;99.90
10042;DHT22;5061;49.068;12.058;2022-12-29T08:12:34;1.90;99.90
10042;DHT22;5061;49.068;12.058;2022-12-29T08:15:54;2.00;99.90
10042;DHT22;5061;49.068;12.058;2022-12-29T08:19:15;2.00;99.90
10042;DHT22;5061;49.068;12.058;2022-12-29T08:22:36;2.00;99.90
10042;DHT22;5061;49.068;12.058;2022-12-29T08:26:02;2.00;99.90
10042;DHT22;5061;49.068;12.058;2022-12-29T08:29:23;2.10;99.90
10042;DHT22;5061;49.068;12.058;2022-12-29T08:32:43;2.10;99.90
10042;DHT22;5061;49.068;12.058;2022-12-29T08:36:06;2.10;99.90
10042;DHT22;5061;49.068;12.058;2022-12-29T08:39:28;2.10;99.90
10042;DHT22;5061;49.068;12.058;2022-12-29T08:42:48;2.10;99.90
10042;DHT22;5061;49.068;12.058;2022-12-29T08:46:09;2.20;99.90
10042;DHT22;5061;49.068;12.058;2022-12-29T08:49:30;2.20;99.90
10042;DHT22;5061;49.068;12.058;2022-12-29T08:52:50;2.20;99.90
10042;DHT22;5061;49.068;12.058;2022-12-29T08:56:11;2.30;99.90
10042;DHT22;5061;49.068;12.058;2022-12-29T08:59:32;2.30;99.90
10042;DHT22;5061;49.068;12.058;2022-12-29T09:02:52;2.40;99.90
10042;DHT22;5061;49.068;12.058;2022-12-29T09:06:15;2.40;99.90
10042;DHT22;5061;49.068;12.058;2022-12-29T09:09:36;2.40;99.90
10042;DHT22;5061;49.068;12.058;2022-12-29T09:12:56;2.50;99.90
10042;DHT22;5061;49.068;12.058;2022-12-29T09:16:17;2.50;99.90
10042;DHT22;5061;49.068;12.058;2022-12-29T09:19:38;2.50;99.90
10042;DHT22;5061;49.068;12.058;2022-12-29T09:22:59;2.50;99.90
10042;DHT22;5061;49.068;12.058;2022-12-29T09:26:19;2.60;99.90
10042;DHT22;5061;49.068;12.058;2022-12-29T09:29:40;2.60;99.90
10042;DHT22;5061;49.068;12.058;2022-12-29T09:33:01;2.70;99.90
10042;DHT22;5061;49.068;12.058;2022-12-29T09:36:21;2.70;99.90
10042;DHT22;5061;49.068;12.058;2022-12-29T09:39:42;2.70;99.90
10042;DHT22;5061;49.068;12.058;2022-12-29T09:46:39;2.90;99.90
10042;DHT22;5061;49.068;12.058;2022-12-29T09:54:04;2.90;99.90
10042;DHT22;5061;49.068;12.058;2022-12-29T09:57:38;3.00;99.90
10042;DHT22;5061;49.068;12.058;2022-12-29T10:01:09;3.10;99.90
10042;DHT22;5061;49.068;12.058;2022-12-29T10:04:32;3.10;99.90
10042;DHT22;5061;49.068;12.058;2022-12-29T10:11:53;3.20;99.90
10042;DHT22;5061;49.068;12.058;2022-12-29T10:15:48;3.30;99.90
10042;DHT22;5061;49.068;12.058;2022-12-29T10:19:20;3.40;99.90
10042;DHT22;5061;49.068;12.058;2022-12-29T10:26:28;3.60;99.90
10042;DHT22;5061;49.068;12.058;2022-12-29T10:29:56;3.60;99.90
10042;DHT22;5061;49.068;12.058;2022-12-29T10:33:23;3.70;99.90
10042;DHT22;5061;49.068;12.058;2022-12-29T10:36:55;3.80;99.90
10042;DHT22;5061;49.068;12.058;2022-12-29T10:40:19;3.80;99.90
10042;DHT22;5061;49.068;12.058;2022-12-29T10:43:51;3.90;99.90
10042;DHT22;5061;49.068;12.058;2022-12-29T10:47:15;4.00;99.90
10042;DHT22;5061;49.068;12.058;2022-12-29T10:50:37;4.00;99.90
10042;DHT22;5061;49.068;12.058;2022-12-29T10:54:22;4.00;99.90
10042;DHT22;5061;49.068;12.058;2022-12-29T10:57:45;4.10;99.90
10042;DHT22;5061;49.068;12.058;2022-12-29T11:01:08;4.20;99.90
10042;DHT22;5061;49.068;12.058;2022-12-29T11:08:17;4.30;99.90
10042;DHT22;5061;49.068;12.058;2022-12-29T11:11:39;4.40;99.90
10042;DHT22;5061;49.068;12.058;2022-12-29T11:15:13;4.40;99.90
10042;DHT22;5061;49.068;12.058;2022-12-29T11:18:37;4.40;99.90
10042;DHT22;5061;49.068;12.058;2022-12-29T11:22:24;4.50;99.90
10042;DHT22;5061;49.068;12.058;2022-12-29T11:25:45;4.50;99.90
10042;DHT22;5061;49.068;12.058;2022-12-29T11:32:28;4.60;99.90
10042;DHT22;5061;49.068;12.058;2022-12-29T11:43:05;4.80;99.90
10042;DHT22;5061;49.068;12.058;2022-12-29T11:46:32;4.90;99.90
10042;DHT22;5061;49.068;12.058;2022-12-29T11:49:59;4.90;99.90
10042;DHT22;5061;49.068;12.058;2022-12-29T11:53:24;4.90;99.90
10042;DHT22;5061;49.068;12.058;2022-12-29T11:56:46;4.90;99.90
10042;DHT22;5061;49.068;12.058;2022-12-29T12:00:19;4.90;99.90
10042;DHT22;5061;49.068;12.058;2022-12-29T12:03:46;5.00;99.90
10042;DHT22;5061;49.068;12.058;2022-12-29T12:07:18;5.10;99.90
10042;DHT22;5061;49.068;12.058;2022-12-29T12:14:40;5.20;99.90
10042;DHT22;5061;49.068;12.058;2022-12-29T12:18:11;5.30;99.90
10042;DHT22;5061;49.068;12.058;2022-12-29T12:21:39;5.40;99.90
10042;DHT22;5061;49.068;12.058;2022-12-29T12:26:04;5.50;99.90
10042;DHT22;5061;49.068;12.058;2022-12-29T12:28:57;5.60;99.90
10042;DHT22;5061;49.068;12.058;2022-12-29T12:32:44;5.60;99.90
10042;DHT22;5061;49.068;12.058;2022-12-29T12:50:41;6.00;99.90
10042;DHT22;5061;49.068;12.058;2022-12-29T12:54:39;6.00;99.90
10042;DHT22;5061;49.068;12.058;2022-12-29T13:09:08;6.30;99.90
10042;DHT22;5061;49.068;12.058;2022-12-29T13:19:51;6.40;99.90
10042;DHT22;5061;49.068;12.058;2022-12-29T13:23:19;6.40;99.90
10042;DHT22;5061;49.068;12.058;2022-12-29T13:30:20;6.40;99.90
10042;DHT22;5061;49.068;12.058;2022-12-29T13:33:50;6.50;99.90
10042;DHT22;5061;49.068;12.058;2022-12-29T13:37:16;6.50;99.90
10042;DHT22;5061;49.068;12.058;2022-12-29T13:40:41;6.50;99.90
10042;DHT22;5061;49.068;12.058;2022-12-29T13:44:04;6.60;99.90
10042;DHT22;5061;49.068;12.058;2022-12-29T13:50:55;6.60;99.90
10042;DHT22;5061;49.068;12.058;2022-12-29T13:54:39;6.60;99.90
10042;DHT22;5061;49.068;12.058;2022-12-29T14:01:46;6.70;99.90
10042;DHT22;5061;49.068;12.058;2022-12-29T14:08:38;6.70;99.90
10042;DHT22;5061;49.068;12.058;2022-12-29T14:11:59;6.60;99.90
10042;DHT22;5061;49.068;12.058;2022-12-29T14:15:22;6.70;99.90
10042;DHT22;5061;49.068;12.058;2022-12-29T14:18:44;6.60;99.90
10042;DHT22;5061;49.068;12.058;2022-12-29T14:22:06;6.60;99.90
10042;DHT22;5061;49.068;12.058;2022-12-29T14:33:10;6.60;99.90
10042;DHT22;5061;49.068;12.058;2022-12-29T14:43:38;6.60;99.90
10042;DHT22;5061;49.068;12.058;2022-12-29T14:47:01;6.60;99.90
10042;DHT22;5061;49.068;12.058;2022-12-29T14:53:51;6.80;99.90
10042;DHT22;5061;49.068;12.058;2022-12-29T14:57:37;7.00;99.90
10042;DHT22;5061;49.068;12.058;2022-12-29T15:01:00;7.10;99.90
10042;DHT22;5061;49.068;12.058;2022-12-29T15:04:31;7.20;99.90
10042;DHT22;5061;49.068;12.058;2022-12-29T15:07:53;7.40;99.90
10042;DHT22;5061;49.068;12.058;2022-12-29T15:11:27;7.40;99.90
10042;DHT22;5061;49.068;12.058;2022-12-29T15:14:55;7.60;99.90
10042;DHT22;5061;49.068;12.058;2022-12-29T15:18:28;7.70;99.90
10042;DHT22;5061;49.068;12.058;2022-12-29T15:21:49;7.80;99.90
10042;DHT22;5061;49.068;12.058;2022-12-29T15:25:16;7.80;99.90
10042;DHT22;5061;49.068;12.058;2022-12-29T15:28:43;7.90;99.90
10042;DHT22;5061;49.068;12.058;2022-12-29T15:35:37;8.00;99.90
10042;DHT22;5061;49.068;12.058;2022-12-29T15:38:57;8.00;99.90
10042;DHT22;5061;49.068;12.058;2022-12-29T15:42:52;8.10;99.90
10042;DHT22;5061;49.068;12.058;2022-12-29T15:46:17;8.00;99.90
10042;DHT22;5061;49.068;12.058;2022-12-29T15:49:38;8.10;99.90
10042;DHT22;5061;49.068;12.058;2022-12-29T15:52:59;8.10;99.90
10042;DHT22;5061;49.068;12.058;2022-12-29T15:56:20;8.10;99.90
10042;DHT22;5061;49.068;12.058;2022-12-29T15:59:46;8.10;99.90
10042;DHT22;5061;49.068;12.058;2022-12-29T16:03:12;8.00;99.90
10042;DHT22;5061;49.068;12.058;2022-12-29T16:06:38;8.00;99.90
10042;DHT22;5061;49.068;12.058;2022-12-29T16:10:01;8.10;99.90
10042;DHT22;5061;49.068;12.058;2022-12-29T16:13:27;8.00;99.90
10042;DHT22;5061;49.068;12.058;2022-12-29T16:16:49;7.90;99.90
10042;DHT22;5061;49.068;12.058;2022-12-29T16:20:23;7.90;99.90
10042;DHT22;5061;49.068;12.058;2022-12-29T16:23:48;7.90;99.90
10042;DHT22;5061;49.068;12.058;2022-12-29T16:27:36;7.80;99.90
10042;DHT22;5061;49.068;12.058;2022-12-29T16:34:43;7.70;99.90
10042;DHT22;5061;49.068;12.058;2022-12-29T16:38:19;7.70;99.90
10042;DHT22;5061;49.068;12.058;2022-12-29T16:41:41;7.60;99.90
10042;DHT22;5061;49.068;12.058;2022-12-29T16:48:50;7.60;99.90
10042;DHT22;5061;49.068;12.058;2022-12-29T16:52:25;7.60;99.90
10042;DHT22;5061;49.068;12.058;2022-12-29T16:55:50;7.60;99.90
10042;DHT22;5061;49.068;12.058;2022-12-29T16:59:33;7.60;99.90
10042;DHT22;5061;49.068;12.058;2022-12-29T17:03:00;7.60;99.90
10042;DHT22;5061;49.068;12.058;2022-12-29T17:06:22;7.60;99.90
10042;DHT22;5061;49.068;12.058;2022-12-29T17:09:43;7.60;99.90
10042;DHT22;5061;49.068;12.058;2022-12-29T17:13:04;7.60;99.90
10042;DHT22;5061;49.068;12.058;2022-12-29T17:16:24;7.60;99.90
10042;DHT22;5061;49.068;12.058;2022-12-29T17:19:48;7.60;99.90
10042;DHT22;5061;49.068;12.058;2022-12-29T17:23:15;7.60;99.90
10042;DHT22;5061;49.068;12.058;2022-12-29T17:26:36;7.60;99.90
10042;DHT22;5061;49.068;12.058;2022-12-29T17:29:59;7.60;99.90
10042;DHT22;5061;49.068;12.058;2022-12-29T17:33:21;7.60;99.90
10042;DHT22;5061;49.068;12.058;2022-12-29T17:36:42;7.60;99.90
10042;DHT22;5061;49.068;12.058;2022-12-29T17:40:04;7.50;99.90
10042;DHT22;5061;49.068;12.058;2022-12-29T17:43:26;7.50;99.90
10042;DHT22;5061;49.068;12.058;2022-12-29T17:46:47;7.50;99.90
10042;DHT22;5061;49.068;12.058;2022-12-29T17:50:18;7.50;99.90
10042;DHT22;5061;49.068;12.058;2022-12-29T17:53:39;7.50;99.90
10042;DHT22;5061;49.068;12.058;2022-12-29T17:56:59;7.50;99.90
10042;DHT22;5061;49.068;12.058;2022-12-29T18:00:26;7.50;99.90
10042;DHT22;5061;49.068;12.058;2022-12-29T18:03:47;7.50;99.90
10042;DHT22;5061;49.068;12.058;2022-12-29T18:07:11;7.40;99.90
10042;DHT22;5061;49.068;12.058;2022-12-29T18:10:32;7.40;99.90
10042;DHT22;5061;49.068;12.058;2022-12-29T18:13:53;7.40;99.90
10042;DHT22;5061;49.068;12.058;2022-12-29T18:17:14;7.30;99.90
10042;DHT22;5061;49.068;12.058;2022-12-29T18:20:34;7.30;99.90
10042;DHT22;5061;49.068;12.058;2022-12-29T18:23:55;7.20;99.90
10042;DHT22;5061;49.068;12.058;2022-12-29T18:27:16;7.20;99.90
10042;DHT22;5061;49.068;12.058;2022-12-29T18:30:38;7.10;99.90
10042;DHT22;5061;49.068;12.058;2022-12-29T18:34:01;7.00;99.90
10042;DHT22;5061;49.068;12.058;2022-12-29T18:37:22;6.90;99.90
10042;DHT22;5061;49.068;12.058;2022-12-29T18:40:43;6.90;99.90
10042;DHT22;5061;49.068;12.058;2022-12-29T18:44:03;6.80;99.90
10042;DHT22;5061;49.068;12.058;2022-12-29T18:47:24;6.70;99.90
10042;DHT22;5061;49.068;12.058;2022-12-29T18:50:46;6.70;99.90
10042;DHT22;5061;49.068;12.058;2022-12-29T18:54:27;6.70;99.90
10042;DHT22;5061;49.068;12.058;2022-12-29T18:57:49;6.60;99.90
10042;DHT22;5061;49.068;12.058;2022-12-29T19:01:21;6.60;99.90
10042;DHT22;5061;49.068;12.058;2022-12-29T19:04:42;6.60;99.90
10042;DHT22;5061;49.068;12.058;2022-12-29T19:08:03;6.60;99.90
10042;DHT22;5061;49.068;12.058;2022-12-29T19:11:24;6.60;99.90
10042;DHT22;5061;49.068;12.058;2022-12-29T19:14:45;6.60;99.90
10042;DHT22;5061;49.068;12.058;2022-12-29T19:18:07;6.60;99.90
10042;DHT22;5061;49.068;12.058;2022-12-29T19:21:29;6.60;99.90
10042;DHT22;5061;49.068;12.058;2022-12-29T19:24:50;6.60;99.90
10042;DHT22;5061;49.068;12.058;2022-12-29T19:28:24;6.60;99.90
10042;DHT22;5061;49.068;12.058;2022-12-29T19:31:45;6.60;99.90
10042;DHT22;5061;49.068;12.058;2022-12-29T19:35:08;6.60;99.90
10042;DHT22;5061;49.068;12.058;2022-12-29T19:38:29;6.60;99.90
10042;DHT22;5061;49.068;12.058;2022-12-29T19:41:49;6.60;99.90
10042;DHT22;5061;49.068;12.058;2022-12-29T19:45:10;6.70;99.90
10042;DHT22;5061;49.068;12.058;2022-12-29T19:48:31;6.70;99.90
10042;DHT22;5061;49.068;12.058;2022-12-29T19:51:51;6.70;99.90
10042;DHT22;5061;49.068;12.058;2022-12-29T19:55:16;6.70;99.90
10042;DHT22;5061;49.068;12.058;2022-12-29T19:58:37;6.70;99.90
10042;DHT22;5061;49.068;12.058;2022-12-29T20:01:58;6.70;99.90
10042;DHT22;5061;49.068;12.058;2022-12-29T20:05:18;6.70;99.90
10042;DHT22;5061;49.068;12.058;2022-12-29T20:08:39;6.70;99.90
10042;DHT22;5061;49.068;12.058;2022-12-29T20:12:00;6.70;99.90
10042;DHT22;5061;49.068;12.058;2022-12-29T20:15:20;6.70;99.90
10042;DHT22;5061;49.068;12.058;2022-12-29T20:18:41;6.70;99.90
10042;DHT22;5061;49.068;12.058;2022-12-29T20:22:05;6.70;99.90
10042;DHT22;5061;49.068;12.058;2022-12-29T20:25:28;6.60;99.90
10042;DHT22;5061;49.068;12.058;2022-12-29T20:28:49;6.60;99.90
10042;DHT22;5061;49.068;12.058;2022-12-29T20:32:15;6.60;99.90
10042;DHT22;5061;49.068;12.058;2022-12-29T20:35:36;6.50;99.90
10042;DHT22;5061;49.068;12.058;2022-12-29T20:38:59;6.60;99.90
10042;DHT22;5061;49.068;12.058;2022-12-29T20:42:20;6.60;99.90
10042;DHT22;5061;49.068;12.058;2022-12-29T20:45:41;6.60;99.90
10042;DHT22;5061;49.068;12.058;2022-12-29T20:49:02;6.50;99.90
10042;DHT22;5061;49.068;12.058;2022-12-29T20:52:22;6.60;99.90
10042;DHT22;5061;49.068;12.058;2022-12-29T20:55:43;6.50;99.90
10042;DHT22;5061;49.068;12.058;2022-12-29T20:59:04;6.50;99.90
10042;DHT22;5061;49.068;12.058;2022-12-29T21:02:24;6.50;99.90
10042;DHT22;5061;49.068;12.058;2022-12-29T21:05:45;6.50;99.90
10042;DHT22;5061;49.068;12.058;2022-12-29T21:09:06;6.50;99.90
10042;DHT22;5061;49.068;12.058;2022-12-29T21:12:27;6.50;99.90
10042;DHT22;5061;49.068;12.058;2022-12-29T21:15:53;6.50;99.90
10042;DHT22;5061;49.068;12.058;2022-12-29T21:19:14;6.50;99.90
10042;DHT22;5061;49.068;12.058;2022-12-29T21:22:35;6.50;99.90
10042;DHT22;5061;49.068;12.058;2022-12-29T21:25:56;6.40;99.90
10042;DHT22;5061;49.068;12.058;2022-12-29T21:29:17;6.50;99.90
10042;DHT22;5061;49.068;12.058;2022-12-29T21:32:37;6.40;99.90
10042;DHT22;5061;49.068;12.058;2022-12-29T21:36:04;6.40;99.90
10042;DHT22;5061;49.068;12.058;2022-12-29T21:39:25;6.40;99.90
10042;DHT22;5061;49.068;12.058;2022-12-29T21:42:45;6.40;99.90
10042;DHT22;5061;49.068;12.058;2022-12-29T21:46:06;6.40;99.90
10042;DHT22;5061;49.068;12.058;2022-12-29T21:49:27;6.40;99.90
10042;DHT22;5061;49.068;12.058;2022-12-29T21:52:48;6.40;99.90
10042;DHT22;5061;49.068;12.058;2022-12-29T21:56:14;6.40;99.90
10042;DHT22;5061;49.068;12.058;2022-12-29T21:59:35;6.50;99.90
10042;DHT22;5061;49.068;12.058;2022-12-29T22:03:15;6.50;99.90
10042;DHT22;5061;49.068;12.058;2022-12-29T22:06:54;6.50;99.90
10042;DHT22;5061;49.068;12.058;2022-12-29T22:10:44;6.50;99.90
10042;DHT22;5061;49.068;12.058;2022-12-29T22:14:24;6.60;99.90
10042;DHT22;5061;49.068;12.058;2022-12-29T22:17:51;6.50;99.90
10042;DHT22;5061;49.068;12.058;2022-12-29T22:21:12;6.50;99.90
10042;DHT22;5061;49.068;12.058;2022-12-29T22:24:32;6.50;99.90
10042;DHT22;5061;49.068;12.058;2022-12-29T22:27:53;6.50;99.90
10042;DHT22;5061;49.068;12.058;2022-12-29T22:31:26;6.50;99.90
10042;DHT22;5061;49.068;12.058;2022-12-29T22:34:48;6.50;99.90
10042;DHT22;5061;49.068;12.058;2022-12-29T22:38:08;6.40;99.90
10042;DHT22;5061;49.068;12.058;2022-12-29T22:41:29;6.40;99.90
10042;DHT22;5061;49.068;12.058;2022-12-29T22:44:49;6.40;99.90
10042;DHT22;5061;49.068;12.058;2022-12-29T22:48:10;6.40;99.90
10042;DHT22;5061;49.068;12.058;2022-12-29T22:51:31;6.40;99.90
10042;DHT22;5061;49.068;12.058;2022-12-29T22:54:51;6.40;99.90
10042;DHT22;5061;49.068;12.058;2022-12-29T22:58:12;6.40;99.90
10042;DHT22;5061;49.068;12.058;2022-12-29T23:01:33;6.40;99.90
10042;DHT22;5061;49.068;12.058;2022-12-29T23:04:54;6.40;99.90
10042;DHT22;5061;49.068;12.058;2022-12-29T23:08:15;6.40;99.90
10042;DHT22;5061;49.068;12.058;2022-12-29T23:11:36;6.50;99.90
10042;DHT22;5061;49.068;12.058;2022-12-29T23:14:57;6.60;99.90
10042;DHT22;5061;49.068;12.058;2022-12-29T23:18:17;6.60;99.90
10042;DHT22;5061;49.068;12.058;2022-12-29T23:21:38;6.70;99.90
10042;DHT22;5061;49.068;12.058;2022-12-29T23:24:59;6.70;99.90
10042;DHT22;5061;49.068;12.058;2022-12-29T23:28:20;6.70;99.90
10042;DHT22;5061;49.068;12.058;2022-12-29T23:31:40;6.70;99.90
10042;DHT22;5061;49.068;12.058;2022-12-29T23:35:01;6.80;99.90
10042;DHT22;5061;49.068;12.058;2022-12-29T23:38:22;6.80;99.90
10042;DHT22;5061;49.068;12.058;2022-12-29T23:41:42;6.80;99.90
10042;DHT22;5061;49.068;12.058;2022-12-29T23:45:03;6.80;99.90
10042;DHT22;5061;49.068;12.058;2022-12-29T23:48:24;6.80;99.90
10042;DHT22;5061;49.068;12.058;2022-12-29T23:51:45;6.80;99.90
10042;DHT22;5061;49.068;12.058;2022-12-29T23:55:06;6.80;99.90
10042;DHT22;5061;49.068;12.058;2022-12-29T23:58:31;6.80;99.90
